Time;durP1;ratioP1;P1;durP2;ratioP2;P2;SDS_P1;SDS_P2;PMS_P1;PMS_P2;Temp;Humidity;BMP_temperature;BMP_pressure;BME280_temperature;BME280_humidity;BME280_pressure;Samples;Min_cycle;Max_cycle;Signal;HPM_P1;HPM_P2
2022/12/11 00:01:22;;;;;;;112.65;29.88;;;;;;;-0.83;100.00;100923.00;4950558;28;20027;-78
2022/12/11 00:03:47;;;;;;;102.50;29.15;;;;;;;-0.82;100.00;100928.91;4949092;28;20058;-77
2022/12/11 00:06:16;;;;;;;109.38;32.33;;;;;;;-0.88;100.00;100929.25;4932777;28;20062;-77
2022/12/11 00:08:42;;;;;;;103.97;29.48;;;;;;;-0.88;100.00;100927.50;4930877;28;20031;-80
2022/12/11 00:11:10;;;;;;;107.75;29.38;;;;;;;-0.71;100.00;100928.38;4976553;28;20508;-78
2022/12/11 00:13:36;;;;;;;112.75;29.45;;;;;;;-0.84;100.00;100920.53;4935639;28;20377;-78
2022/12/11 00:16:01;;;;;;;111.88;28.50;;;;;;;-0.82;100.00;100923.81;4959884;28;20095;-79
2022/12/11 00:18:27;;;;;;;102.88;28.48;;;;;;;-0.90;100.00;100921.66;4948735;28;20039;-79
2022/12/11 00:20:52;;;;;;;109.35;28.83;;;;;;;-0.91;100.00;100921.75;4947777;28;20043;-80
2022/12/11 00:23:17;;;;;;;99.43;28.73;;;;;;;-0.96;100.00;100924.53;4949456;28;20039;-78
2022/12/11 00:25:45;;;;;;;111.40;30.30;;;;;;;-0.96;100.00;100922.00;4942382;28;20075;-79
2022/12/11 00:28:12;;;;;;;109.55;29.92;;;;;;;-0.90;100.00;100925.94;4945249;28;20122;-79
2022/12/11 00:30:39;;;;;;;110.10;28.40;;;;;;;-0.92;100.00;100930.28;4946998;28;20082;-78
2022/12/11 00:33:05;;;;;;;117.50;28.98;;;;;;;-0.90;100.00;100931.84;4942498;28;20045;-78
2022/12/11 00:35:31;;;;;;;115.13;29.48;;;;;;;-0.93;100.00;100931.19;4943799;28;20035;-79
2022/12/11 00:37:57;;;;;;;95.70;26.90;;;;;;;-0.94;100.00;100934.63;4935826;28;20038;-80
2022/12/11 00:40:22;;;;;;;110.10;29.02;;;;;;;-0.95;100.00;100933.00;4946949;28;20672;-78
2022/12/11 00:42:48;;;;;;;104.85;29.42;;;;;;;-0.93;100.00;100929.47;4941558;28;20036;-78
2022/12/11 00:45:13;;;;;;;102.93;26.02;;;;;;;-0.93;100.00;100929.47;4949074;28;20461;-77
2022/12/11 00:47:39;;;;;;;100.38;28.60;;;;;;;-0.93;100.00;100929.47;4945544;28;20584;-79
2022/12/11 00:50:05;;;;;;;100.22;27.27;;;;;;;-0.96;100.00;100929.63;4957895;28;20027;-79
2022/12/11 00:52:30;;;;;;;93.55;26.75;;;;;;;-0.96;100.00;100926.25;4940201;28;20597;-78
2022/12/11 00:54:56;;;;;;;108.55;27.90;;;;;;;-0.96;100.00;100924.53;4942807;28;20031;-80
2022/12/11 00:57:21;;;;;;;108.15;28.23;;;;;;;-0.94;100.00;100916.81;4945659;28;22155;-77
2022/12/11 00:59:46;;;;;;;100.93;25.48;;;;;;;-0.94;100.00;100922.75;4948090;28;20048;-78
2022/12/11 01:02:12;;;;;;;103.45;27.27;;;;;;;-0.89;100.00;100922.50;4949108;28;20042;-77
2022/12/11 01:04:38;;;;;;;88.05;25.67;;;;;;;-0.89;100.00;100913.13;4942675;28;20035;-77
2022/12/11 01:07:03;;;;;;;96.35;26.52;;;;;;;-0.91;100.00;100911.56;4943160;28;20485;-78
2022/12/11 01:12:13;;;;;;;99.78;27.73;;;;;;;-0.85;100.00;100913.78;4955833;28;20027;-78
2022/12/11 01:14:38;;;;;;;99.78;27.98;;;;;;;-0.88;100.00;100908.88;4944929;28;20062;-79
2022/12/11 01:17:04;;;;;;;83.60;24.77;;;;;;;-0.88;100.00;100911.41;4942487;28;20019;-77
2022/12/11 01:19:29;;;;;;;90.50;25.83;;;;;;;-0.87;100.00;100913.03;4941187;28;20080;-79
2022/12/11 01:21:55;;;;;;;88.88;25.80;;;;;;;-0.87;100.00;100916.41;4948559;28;20043;-78
2022/12/11 01:24:20;;;;;;;86.82;25.88;;;;;;;-0.87;100.00;100918.13;4943674;28;20031;-79
2022/12/11 01:26:46;;;;;;;92.65;26.55;;;;;;;-0.87;100.00;100925.78;4940012;28;20094;-78
2022/12/11 01:29:11;;;;;;;86.28;26.25;;;;;;;-0.89;100.00;100920.75;4942377;28;20493;-78
2022/12/11 01:31:37;;;;;;;86.82;25.60;;;;;;;-0.88;100.00;100919.06;4946968;28;20023;-78
2022/12/11 01:34:02;;;;;;;103.32;29.23;;;;;;;-0.87;100.00;100918.94;4942938;28;20043;-78
2022/12/11 01:36:28;;;;;;;97.13;27.10;;;;;;;-0.72;100.00;100926.69;4944023;28;20061;-77
2022/12/11 01:38:53;;;;;;;91.13;28.67;;;;;;;-0.75;100.00;100921.75;4927543;28;20099;-79
2022/12/11 01:41:20;;;;;;;100.00;28.42;;;;;;;-0.82;100.00;100911.91;4958411;28;20035;-79
2022/12/11 01:43:59;;;;;;;91.53;28.23;;;;;;;-0.84;100.00;100915.44;4943701;28;20061;-78
2022/12/11 01:46:25;;;;;;;100.35;28.35;;;;;;;-0.82;100.00;100911.09;4936465;28;20039;-78
2022/12/11 01:48:52;;;;;;;111.57;31.00;;;;;;;-0.77;100.00;100910.84;4962033;28;20054;-77
2022/12/11 01:51:17;;;;;;;92.25;27.38;;;;;;;-0.81;100.00;100910.16;4946075;28;20035;-79
2022/12/11 01:53:50;;;;;;;101.10;28.77;;;;;;;-0.83;100.00;100906.88;4975293;28;20069;-78
2022/12/11 01:56:16;;;;;;;101.32;28.73;;;;;;;-0.78;100.00;100904.94;4942811;28;20069;-79
2022/12/11 01:58:46;;;;;;;96.60;27.48;;;;;;;-0.79;100.00;100911.75;4942383;28;20156;-78
2022/12/11 02:01:19;;;;;;;96.55;27.58;;;;;;;-0.74;100.00;100905.59;4941552;28;20105;-79
2022/12/11 02:03:45;;;;;;;95.32;28.65;;;;;;;-0.76;100.00;100900.56;4936339;28;20039;-79
2022/12/11 02:06:50;;;;;;;97.57;29.60;;;;;;;-0.79;100.00;100908.41;4941381;28;20775;-78
2022/12/11 02:09:20;;;;;;;90.65;27.85;;;;;;;-0.79;100.00;100905.84;4937569;28;20695;-78
2022/12/11 02:12:05;;;;;;;91.35;26.90;;;;;;;-0.74;100.00;100903.03;4939607;28;20819;-78
2022/12/11 02:14:59;;;;;;;87.65;27.63;;;;;;;-0.75;100.00;100893.75;4942437;28;20040;-80
2022/12/11 02:17:44;;;;;;;86.47;26.83;;;;;;;-0.79;100.00;100898.22;4940256;28;20687;-77
2022/12/11 02:20:26;;;;;;;86.18;27.02;;;;;;;-0.77;100.00;100896.41;4940695;28;20035;-79
2022/12/11 02:23:11;;;;;;;78.68;24.85;;;;;;;-0.71;100.00;100879.97;4944122;28;20035;-77
2022/12/11 02:25:43;;;;;;;77.78;25.70;;;;;;;-0.76;100.00;100882.75;4945666;28;20050;-78
2022/12/11 02:28:33;;;;;;;86.20;27.23;;;;;;;-0.74;100.00;100878.38;4956171;28;20105;-78
2022/12/11 02:31:15;;;;;;;82.05;28.00;;;;;;;-0.64;100.00;100887.22;4944672;28;20493;-79
2022/12/11 02:33:47;;;;;;;87.60;26.77;;;;;;;-0.58;100.00;100875.88;4952328;28;20036;-78
2022/12/11 02:36:17;;;;;;;78.32;24.27;;;;;;;-0.64;100.00;100871.94;4943131;28;20034;-81
2022/12/11 02:38:49;;;;;;;85.05;27.20;;;;;;;-0.67;100.00;100878.91;4944471;28;20043;-78
2022/12/11 02:41:17;;;;;;;83.43;26.80;;;;;;;-0.73;100.00;100867.31;4945134;28;20042;-78
2022/12/11 02:43:43;;;;;;;83.30;25.08;;;;;;;-0.75;100.00;100871.66;4948272;28;20619;-78
2022/12/11 02:46:11;;;;;;;74.55;25.70;;;;;;;-0.73;100.00;100877.50;4922494;28;20043;-77
2022/12/11 02:48:39;;;;;;;82.10;25.83;;;;;;;-0.72;100.00;100874.03;4939664;28;20373;-77
2022/12/11 02:51:07;;;;;;;85.63;26.77;;;;;;;-0.77;100.00;100875.19;4948173;28;21346;-78
2022/12/11 02:53:37;;;;;;;89.10;26.35;;;;;;;-0.75;100.00;100873.38;4942605;28;20043;-78
2022/12/11 02:56:11;;;;;;;83.18;25.58;;;;;;;-0.66;100.00;100867.78;4941143;28;20093;-79
2022/12/11 02:58:44;;;;;;;79.53;26.17;;;;;;;-0.70;100.00;100864.59;4953483;28;20037;-78
2022/12/11 03:01:10;;;;;;;85.43;25.92;;;;;;;-0.71;100.00;100868.06;4945463;28;20046;-79
2022/12/11 03:03:35;;;;;;;78.13;25.88;;;;;;;-0.73;100.00;100862.22;4955510;28;20427;-78
2022/12/11 03:06:02;;;;;;;82.60;24.67;;;;;;;-0.67;100.00;100866.97;4945156;28;20543;-79
2022/12/11 03:08:28;;;;;;;76.13;24.52;;;;;;;-0.62;100.00;100856.56;4946547;28;20061;-79
2022/12/11 03:10:54;;;;;;;73.20;24.40;;;;;;;-0.68;100.00;100852.63;4941088;28;20075;-77
2022/12/11 03:13:21;;;;;;;79.45;24.40;;;;;;;-0.65;100.00;100854.97;4939158;28;20046;-78
2022/12/11 03:15:49;;;;;;;73.97;23.80;;;;;;;-0.68;100.00;100855.16;4946177;28;20054;-80
2022/12/11 03:18:38;;;;;;;68.78;24.33;;;;;;;-0.72;100.00;100858.75;4941886;28;20468;-78
2022/12/11 03:21:06;;;;;;;77.00;26.05;;;;;;;-0.67;100.00;100861.06;4941004;28;20043;-78
2022/12/11 03:23:48;;;;;;;77.22;24.83;;;;;;;-0.69;100.00;100866.25;4937350;28;20040;-79
2022/12/11 03:26:16;;;;;;;79.10;25.30;;;;;;;-0.72;100.00;100863.84;4928359;28;20062;-77
2022/12/11 03:28:46;;;;;;;74.47;22.88;;;;;;;-0.73;100.00;100857.13;4944791;28;20098;-78
2022/12/11 03:31:18;;;;;;;68.32;23.60;;;;;;;-0.71;100.00;100855.31;4950748;28;20039;-78
2022/12/11 03:33:48;;;;;;;75.70;24.38;;;;;;;-0.72;100.00;100858.75;4948277;28;20054;-78
2022/12/11 03:36:20;;;;;;;71.40;25.70;;;;;;;-0.67;100.00;100861.88;4931384;28;20038;-78
2022/12/11 03:39:00;;;;;;;76.78;27.13;;;;;;;-0.73;100.00;100862.22;4958112;28;20086;-78
2022/12/11 03:41:29;;;;;;;75.13;25.58;;;;;;;-0.67;100.00;100866.97;4946941;28;20119;-78
2022/12/11 03:43:57;;;;;;;65.75;24.33;;;;;;;-0.71;100.00;100860.41;4933215;28;20039;-77
2022/12/11 03:46:30;;;;;;;63.88;22.90;;;;;;;-0.74;100.00;100864.84;4953220;28;20062;-77
2022/12/11 03:48:59;;;;;;;69.95;23.90;;;;;;;-0.78;100.00;100856.53;4943951;28;20051;-79
2022/12/11 03:51:27;;;;;;;74.20;24.20;;;;;;;-0.71;100.00;100857.88;4931020;29;20149;-78
2022/12/11 03:53:54;;;;;;;70.18;23.33;;;;;;;-0.75;100.00;100851.31;4947011;28;20485;-78
2022/12/11 03:56:20;;;;;;;75.32;24.02;;;;;;;-0.73;100.00;100854.59;4949956;28;20066;-77
2022/12/11 03:58:46;;;;;;;77.22;24.48;;;;;;;-0.71;100.00;100852.78;4961670;28;20122;-78
2022/12/11 04:01:11;;;;;;;62.00;20.25;;;;;;;-0.76;100.00;100852.19;4949181;28;20460;-77
2022/12/11 04:03:37;;;;;;;66.57;23.40;;;;;;;-0.80;100.00;100856.63;4948791;28;20094;-79
2022/12/11 04:06:03;;;;;;;65.50;22.80;;;;;;;-0.74;100.00;100855.47;4937555;28;20039;-79
2022/12/11 04:08:28;;;;;;;61.40;22.55;;;;;;;-0.60;100.00;100852.22;4940996;28;20043;-77
2022/12/11 04:13:39;;;;;;;66.05;22.73;;;;;;;-0.78;100.00;100856.53;4943076;28;20038;-78
2022/12/11 04:16:05;;;;;;;67.57;23.73;;;;;;;-0.81;100.00;100851.59;4949995;28;20031;-77
2022/12/11 04:24:14;;;;;;;63.70;21.10;;;;;;;-0.75;100.00;100848.75;4968872;28;20130;-78
2022/12/11 04:26:39;;;;;;;60.88;23.52;;;;;;;-0.67;100.00;100841.50;4951195;28;20035;-79
2022/12/11 04:29:05;;;;;;;61.47;22.27;;;;;;;-0.65;100.00;100842.25;4943761;28;20126;-79
2022/12/11 04:31:30;;;;;;;61.20;22.05;;;;;;;-0.61;100.00;100842.91;4951623;28;20670;-78
2022/12/11 04:33:56;;;;;;;70.25;23.88;;;;;;;-0.70;100.00;100834.03;4946374;28;20086;-78
2022/12/11 04:36:22;;;;;;;68.68;24.00;;;;;;;-0.69;100.00;100827.22;4954535;28;20054;-79
2022/12/11 04:38:48;;;;;;;64.38;24.50;;;;;;;-0.67;100.00;100825.41;4945309;28;20043;-78
2022/12/11 04:41:15;;;;;;;68.97;23.75;;;;;;;-0.72;100.00;100829.94;4946946;28;20476;-77
2022/12/11 04:43:43;;;;;;;72.47;23.70;;;;;;;-0.76;100.00;100824.19;4946125;28;20048;-78
2022/12/11 04:46:13;;;;;;;73.53;24.80;;;;;;;-0.72;100.00;100827.38;4947585;28;20043;-77
2022/12/11 04:48:39;;;;;;;70.38;24.50;;;;;;;-0.60;100.00;100824.19;4941261;28;20066;-78
2022/12/11 04:51:07;;;;;;;75.93;24.25;;;;;;;-0.63;100.00;100826.88;4951552;28;20027;-77
2022/12/11 04:53:32;;;;;;;77.15;24.15;;;;;;;-0.66;100.00;100825.34;4947652;28;20090;-78
2022/12/11 04:55:58;;;;;;;69.22;24.63;;;;;;;-0.69;100.00;100827.22;4948101;28;20067;-78
2022/12/11 04:58:24;;;;;;;66.93;22.23;;;;;;;-0.75;100.00;100827.53;4948969;28;20043;-79
2022/12/11 05:00:50;;;;;;;70.93;23.17;;;;;;;-0.68;100.00;100832.25;4945226;28;20074;-77
2022/12/11 05:03:16;;;;;;;71.18;23.08;;;;;;;-0.76;100.00;100831.00;4946859;28;20082;-78
2022/12/11 05:05:47;;;;;;;68.45;23.55;;;;;;;-0.81;100.00;100826.13;4929867;29;20039;-78
2022/12/11 05:08:12;;;;;;;70.40;22.65;;;;;;;-0.73;100.00;100833.41;4927621;28;20066;-77
2022/12/11 05:10:37;;;;;;;68.55;22.40;;;;;;;-0.80;100.00;100827.78;4944521;28;20031;-77
2022/12/11 05:13:03;;;;;;;75.75;23.20;;;;;;;-0.78;100.00;100820.88;4939608;28;20090;-78
2022/12/11 05:15:28;;;;;;;70.00;22.13;;;;;;;-0.78;100.00;100825.97;4945193;28;20054;-78
2022/12/11 05:17:54;;;;;;;67.50;22.42;;;;;;;-0.81;100.00;100815.94;4939897;28;20039;-77
2022/12/11 05:20:19;;;;;;;62.70;22.15;;;;;;;-0.75;100.00;100823.28;4947610;28;20511;-80
2022/12/11 05:22:45;;;;;;;73.22;23.10;;;;;;;-0.81;100.00;100818.50;4946840;28;20043;-77
2022/12/11 05:25:10;;;;;;;73.95;21.75;;;;;;;-0.79;100.00;100820.06;4949129;28;20035;-77
2022/12/11 05:27:36;;;;;;;72.68;23.02;;;;;;;-0.74;100.00;100819.81;4939624;28;20055;-79
2022/12/11 05:30:02;;;;;;;68.80;23.52;;;;;;;-0.78;100.00;100815.78;4943249;28;20016;-79
2022/12/11 05:32:27;;;;;;;72.95;24.35;;;;;;;-0.81;100.00;100813.41;4946377;28;20043;-77
2022/12/11 05:34:53;;;;;;;70.80;24.02;;;;;;;-0.82;100.00;100822.78;4925614;28;20031;-79
2022/12/11 05:37:19;;;;;;;73.47;23.58;;;;;;;-0.74;100.00;100822.38;4948248;28;20042;-80
2022/12/11 05:39:44;;;;;;;67.60;23.90;;;;;;;-0.72;100.00;100822.28;4947302;28;20044;-78
2022/12/11 05:42:10;;;;;;;74.70;23.73;;;;;;;-0.76;100.00;100820.81;4947074;28;20035;-78
2022/12/11 05:44:35;;;;;;;58.67;21.83;;;;;;;-0.74;100.00;100814.72;4929948;28;20035;-78
2022/12/11 05:47:01;;;;;;;63.38;21.33;;;;;;;-0.79;100.00;100811.63;4943795;28;20031;-78
2022/12/11 05:49:26;;;;;;;62.22;22.25;;;;;;;-0.79;100.00;100809.88;4942699;28;20666;-79
2022/12/11 05:51:51;;;;;;;63.83;21.25;;;;;;;-0.77;100.00;100817.44;4944462;28;20236;-81
2022/12/11 05:54:17;;;;;;;63.65;21.25;;;;;;;-0.84;100.00;100811.03;4942901;28;20171;-77
2022/12/11 05:56:43;;;;;;;65.40;21.23;;;;;;;-0.86;100.00;100810.31;4929887;29;20040;-78
2022/12/11 05:59:08;;;;;;;69.65;21.67;;;;;;;-0.85;100.00;100812.78;4944281;28;20612;-78
2022/12/11 06:01:37;;;;;;;68.07;22.48;;;;;;;-0.85;100.00;100806.84;4975128;28;20031;-78
2022/12/11 06:04:05;;;;;;;61.47;21.77;;;;;;;-0.85;100.00;100812.78;4957876;28;20039;-78
2022/12/11 06:06:31;;;;;;;66.78;22.30;;;;;;;-0.79;100.00;100812.44;4941586;28;20035;-79
2022/12/11 06:08:58;;;;;;;57.30;20.65;;;;;;;-0.84;100.00;100811.84;4947209;28;20098;-78
2022/12/11 06:11:25;;;;;;;54.80;21.15;;;;;;;-0.84;100.00;100814.41;4947322;28;20035;-78
2022/12/11 06:13:51;;;;;;;59.63;21.88;;;;;;;-0.82;100.00;100812.59;4937362;28;20497;-78
2022/12/11 06:16:17;;;;;;;66.72;21.75;;;;;;;-0.72;100.00;100807.81;4942065;28;20242;-77
2022/12/11 06:18:44;;;;;;;66.38;22.40;;;;;;;-0.76;100.00;100816.53;4942015;28;20035;-77
2022/12/11 06:21:14;;;;;;;57.55;21.77;;;;;;;-0.73;100.00;100813.84;4962722;28;20450;-78
2022/12/11 06:23:40;;;;;;;71.30;22.10;;;;;;;-0.78;100.00;100808.16;4942667;28;20058;-78
2022/12/11 06:26:06;;;;;;;65.93;22.05;;;;;;;-0.74;100.00;100803.72;4959319;28;20044;-79
2022/12/11 06:28:32;;;;;;;64.88;21.38;;;;;;;-0.75;100.00;100808.00;4941964;28;20027;-78
2022/12/11 06:30:58;;;;;;;58.30;21.20;;;;;;;-0.77;100.00;100808.97;4945906;28;20039;-79
2022/12/11 06:33:24;;;;;;;52.92;19.70;;;;;;;-0.76;100.00;100806.34;4952787;28;20053;-78
2022/12/11 06:35:50;;;;;;;61.03;20.85;;;;;;;-0.70;100.00;100806.00;4947524;28;20059;-77
2022/12/11 06:38:16;;;;;;;61.85;19.92;;;;;;;-0.74;100.00;100804.53;4947145;28;20047;-77
2022/12/11 06:40:42;;;;;;;60.00;20.70;;;;;;;-0.77;100.00;100809.81;4962158;28;20043;-78
2022/12/11 06:43:07;;;;;;;58.25;21.00;;;;;;;-0.76;100.00;100808.91;4944812;28;20047;-78
2022/12/11 06:45:32;;;;;;;54.53;20.35;;;;;;;-0.77;100.00;100804.72;4956102;28;20037;-78
2022/12/11 06:47:58;;;;;;;59.65;20.45;;;;;;;-0.74;100.00;100813.91;4950244;28;20039;-79
2022/12/11 06:50:23;;;;;;;56.70;21.52;;;;;;;-0.75;100.00;100814.81;4954998;28;20087;-78
2022/12/11 06:52:49;;;;;;;51.42;19.98;;;;;;;-0.65;100.00;100814.22;4946826;28;20039;-79
2022/12/11 06:55:14;;;;;;;49.33;18.45;;;;;;;-0.72;100.00;100817.19;4942986;28;20515;-79
2022/12/11 06:57:40;;;;;;;54.72;19.02;;;;;;;-0.74;100.00;100814.72;4947752;28;20035;-77
2022/12/11 07:00:06;;;;;;;56.08;20.85;;;;;;;-0.73;100.00;100815.56;4947358;28;20022;-78
2022/12/11 07:02:31;;;;;;;55.47;19.40;;;;;;;-0.70;100.00;100821.28;4943509;28;20480;-77
2022/12/11 07:04:57;;;;;;;62.33;23.23;;;;;;;-0.65;100.00;100818.50;4945803;28;20042;-78
2022/12/11 07:07:22;;;;;;;63.85;23.65;;;;;;;-0.72;100.00;100815.47;4945260;28;20035;-78
2022/12/11 07:09:48;;;;;;;51.45;20.42;;;;;;;-0.67;100.00;100817.78;4952856;28;20028;-78
2022/12/11 07:12:13;;;;;;;50.60;20.13;;;;;;;-0.68;100.00;100819.50;4946907;28;20031;-79
2022/12/11 07:14:38;;;;;;;56.42;21.27;;;;;;;-0.67;100.00;100821.13;4947639;28;20046;-77
2022/12/11 07:17:04;;;;;;;64.28;23.05;;;;;;;-0.73;100.00;100830.84;4952603;28;20517;-78
2022/12/11 07:19:29;;;;;;;58.20;21.33;;;;;;;-0.75;100.00;100823.28;4943904;28;20106;-77
2022/12/11 07:21:55;;;;;;;62.40;22.58;;;;;;;-0.76;100.00;100821.63;4945716;28;20031;-77
2022/12/11 07:24:20;;;;;;;64.15;23.73;;;;;;;-0.66;100.00;100830.44;4946912;28;20043;-78
2022/12/11 07:26:46;;;;;;;57.95;22.73;;;;;;;-0.71;100.00;100823.94;4946401;28;20062;-77
2022/12/11 07:29:12;;;;;;;64.28;23.05;;;;;;;-0.64;100.00;100832.88;4952121;28;20129;-78
2022/12/11 07:31:37;;;;;;;89.95;34.50;;;;;;;-0.68;100.00;100824.59;4941826;28;20066;-77
2022/12/11 07:34:06;;;;;;;64.18;24.92;;;;;;;-0.73;100.00;100830.84;4944743;28;20038;-77
2022/12/11 07:36:33;;;;;;;57.03;21.52;;;;;;;-0.69;100.00;100830.59;4943586;28;20467;-77
2022/12/11 07:38:59;;;;;;;86.72;32.13;;;;;;;-0.67;100.00;100827.97;4964740;28;20078;-78
2022/12/11 07:41:26;;;;;;;69.82;26.70;;;;;;;-0.72;100.00;100828.19;4943785;28;20126;-78
2022/12/11 07:43:52;;;;;;;66.10;23.45;;;;;;;-0.73;100.00;100831.66;4976545;28;20035;-79
2022/12/11 07:46:22;;;;;;;67.03;26.75;;;;;;;-0.72;100.00;100832.47;4940152;28;20031;-78
2022/12/11 07:48:48;;;;;;;52.38;21.55;;;;;;;-0.68;100.00;100834.78;4940045;28;20046;-78
2022/12/11 07:51:15;;;;;;;61.90;21.92;;;;;;;-0.63;100.00;100837.88;4946547;28;20031;-77
2022/12/11 07:53:44;;;;;;;122.75;40.70;;;;;;;-0.64;100.00;100832.88;4961202;28;20050;-78
2022/12/11 07:56:09;;;;;;;80.13;29.02;;;;;;;-0.69;100.00;100829.78;4935147;28;20063;-78
2022/12/11 07:58:37;;;;;;;79.47;30.58;;;;;;;-0.72;100.00;100829.94;4946764;28;20853;-79
2022/12/11 08:01:04;;;;;;;57.00;23.23;;;;;;;-0.70;100.00;100830.66;4944013;28;20118;-78
2022/12/11 08:03:29;;;;;;;63.67;24.30;;;;;;;-0.73;100.00;100828.31;4942573;28;20057;-78
2022/12/11 08:05:55;;;;;;;76.85;27.55;;;;;;;-0.72;100.00;100824.84;4942822;28;20040;-77
2022/12/11 08:08:20;;;;;;;73.43;26.58;;;;;;;-0.56;100.00;100824.84;4944575;28;20042;-78
2022/12/11 08:10:46;;;;;;;86.43;29.48;;;;;;;-0.63;100.00;100825.16;4941398;28;20072;-79
2022/12/11 08:13:11;;;;;;;77.20;28.13;;;;;;;-0.69;100.00;100824.69;4956575;28;20441;-78
2022/12/11 08:15:37;;;;;;;69.55;25.38;;;;;;;-0.63;100.00;100829.44;4940089;28;20440;-78
2022/12/11 08:18:03;;;;;;;67.20;26.17;;;;;;;-0.59;100.00;100828.34;4957944;28;20039;-77
2022/12/11 08:20:29;;;;;;;71.82;29.70;;;;;;;-0.67;100.00;100825.41;4947741;28;20043;-78
2022/12/11 08:22:55;;;;;;;57.50;23.63;;;;;;;-0.68;100.00;100828.84;4957426;28;20051;-77
2022/12/11 08:25:20;;;;;;;71.50;27.55;;;;;;;-0.76;100.00;100839.44;4951574;28;20038;-78
2022/12/11 08:27:46;;;;;;;50.03;20.55;;;;;;;-0.73;100.00;100841.84;4948125;28;20043;-79
2022/12/11 08:30:12;;;;;;;45.17;19.15;;;;;;;-0.66;100.00;100838.06;4945302;28;20043;-77
2022/12/11 08:32:38;;;;;;;50.28;20.50;;;;;;;-0.72;100.00;100827.38;4942127;28;20033;-78
2022/12/11 08:35:04;;;;;;;52.40;21.15;;;;;;;-0.66;100.00;100829.59;4944098;28;20027;-78
2022/12/11 08:37:29;;;;;;;54.28;21.42;;;;;;;-0.66;100.00;100830.44;4947060;28;20134;-78
2022/12/11 08:39:55;;;;;;;42.75;18.95;;;;;;;-0.65;100.00;100834.59;4949074;28;20043;-79
2022/12/11 08:42:20;;;;;;;53.53;23.17;;;;;;;-0.61;100.00;100830.97;4950805;28;20042;-77
2022/12/11 08:44:46;;;;;;;101.90;42.10;;;;;;;-0.48;100.00;100837.97;4948623;28;20050;-77
2022/12/11 08:47:11;;;;;;;45.78;20.85;;;;;;;-0.56;100.00;100829.94;4949715;28;20082;-77
2022/12/11 08:49:37;;;;;;;47.15;20.92;;;;;;;-0.56;100.00;100827.38;4948153;28;20031;-78
2022/12/11 08:52:03;;;;;;;65.47;29.85;;;;;;;-0.54;100.00;100826.38;4941646;28;20023;-77
2022/12/11 08:54:29;;;;;;;43.10;19.00;;;;;;;-0.56;100.00;100832.47;4948030;28;20043;-77
2022/12/11 08:56:54;;;;;;;44.35;19.48;;;;;;;-0.58;100.00;100832.56;4949890;28;20050;-78
2022/12/11 08:59:20;;;;;;;52.75;22.83;;;;;;;-0.60;100.00;100824.19;4963017;28;20039;-78
2022/12/11 09:01:45;;;;;;;49.42;21.40;;;;;;;-0.65;100.00;100828.69;4955463;28;20035;-79
2022/12/11 09:04:10;;;;;;;47.63;19.40;;;;;;;-0.64;100.00;100823.53;4945908;28;20441;-80
2022/12/11 09:06:36;;;;;;;43.42;18.92;;;;;;;-0.54;100.00;100834.03;4941736;28;20098;-77
2022/12/11 09:09:02;;;;;;;37.75;15.98;;;;;;;-0.51;99.71;100825.38;4940547;28;20642;-78
2022/12/11 09:11:31;;;;;;;38.45;16.73;;;;;;;-0.54;99.88;100835.78;4955098;28;20492;-78
2022/12/11 09:13:56;;;;;;;36.30;15.70;;;;;;;-0.61;99.76;100830.16;4942546;28;20519;-78
2022/12/11 09:16:24;;;;;;;35.60;14.15;;;;;;;-0.53;98.67;100825.47;4948454;28;20038;-80
2022/12/11 09:18:52;;;;;;;35.67;15.93;;;;;;;-0.55;99.23;100831.56;4955000;28;20043;-80
2022/12/11 09:21:21;;;;;;;41.80;15.75;;;;;;;-0.61;99.37;100820.78;4948226;28;20035;-78
2022/12/11 09:23:47;;;;;;;35.20;16.02;;;;;;;-0.57;99.74;100831.63;4949616;28;20043;-78
2022/12/11 09:26:15;;;;;;;35.97;15.50;;;;;;;-0.64;99.84;100833.72;4951506;28;20041;-78
2022/12/11 09:28:42;;;;;;;39.55;16.45;;;;;;;-0.59;99.36;100831.72;4944637;28;20047;-78
2022/12/11 09:31:12;;;;;;;35.20;16.58;;;;;;;-0.57;99.45;100830.81;4948730;28;20019;-77
2022/12/11 09:33:38;;;;;;;32.45;15.38;;;;;;;-0.59;99.63;100830.91;4932478;28;20043;-78
2022/12/11 09:36:04;;;;;;;38.03;15.27;;;;;;;-0.53;99.46;100827.19;4945900;28;20039;-78
2022/12/11 09:38:31;;;;;;;38.13;15.27;;;;;;;-0.56;99.33;100828.19;4942405;28;20455;-77
2022/12/11 09:40:57;;;;;;;32.13;14.48;;;;;;;-0.38;98.94;100825.53;4950792;28;20063;-79
2022/12/11 09:43:48;;;;;;;32.55;14.38;;;;;;;-0.38;97.76;100826.34;4941696;28;20097;-79
2022/12/11 09:46:16;;;;;;;33.95;13.15;;;;;;;-0.47;97.71;100829.41;4943663;28;20031;-78
2022/12/11 09:48:45;;;;;;;30.70;11.65;;;;;;;-0.52;98.33;100826.31;4948118;28;20049;-78
2022/12/11 09:51:27;;;;;;;26.35;12.82;;;;;;;-0.56;98.17;100828.19;4959560;28;20048;-79
2022/12/11 09:53:54;;;;;;;28.60;14.05;;;;;;;-0.52;98.84;100823.75;4941133;28;20734;-79
2022/12/11 09:56:26;;;;;;;30.08;13.50;;;;;;;-0.52;99.02;100822.03;4929225;28;20043;-79
2022/12/11 09:59:05;;;;;;;30.95;13.13;;;;;;;-0.46;99.24;100829.31;4945381;28;20035;-81
2022/12/11 10:01:53;;;;;;;26.35;11.68;;;;;;;-0.50;98.94;100827.84;4930323;29;20090;-77
2022/12/11 10:04:48;;;;;;;35.45;13.10;;;;;;;-0.49;98.39;100829.50;4943539;28;20468;-77
2022/12/11 10:07:38;;;;;;;28.42;12.95;;;;;;;-0.49;98.52;100816.78;4956157;28;20027;-78
2022/12/11 10:10:46;;;;;;;30.05;13.15;;;;;;;-0.36;98.74;100824.53;4947565;28;20043;-78
2022/12/11 10:13:28;;;;;;;28.02;13.10;;;;;;;-0.38;98.62;100821.25;4936150;28;20047;-77
2022/12/11 10:16:02;;;;;;;29.00;13.75;;;;;;;-0.41;98.07;100819.72;4946486;28;20055;-78
2022/12/11 10:18:30;;;;;;;33.58;13.63;;;;;;;-0.40;97.39;100828.16;4935606;28;20082;-82
2022/12/11 10:20:56;;;;;;;36.65;14.00;;;;;;;-0.44;97.67;100824.97;4946173;28;20070;-78
2022/12/11 10:23:34;;;;;;;40.30;17.27;;;;;;;-0.47;97.22;100820.06;4943535;28;20393;-78
2022/12/11 10:26:09;;;;;;;37.63;15.60;;;;;;;-0.47;97.40;100824.31;4944037;28;20050;-78
2022/12/11 10:28:35;;;;;;;33.60;15.30;;;;;;;-0.44;97.04;100819.06;4948576;28;20067;-78
2022/12/11 10:31:06;;;;;;;30.58;14.30;;;;;;;-0.50;97.34;100824.50;4944086;28;20063;-78
2022/12/11 10:33:52;;;;;;;37.03;15.27;;;;;;;-0.35;95.96;100825.38;4940451;28;20059;-78
2022/12/11 10:36:24;;;;;;;35.67;16.38;;;;;;;-0.45;96.10;100827.63;4941094;28;20045;-77
2022/12/11 10:38:50;;;;;;;48.03;23.30;;;;;;;-0.47;96.67;100822.59;4942579;28;20043;-78
2022/12/11 10:41:23;;;;;;;33.38;16.15;;;;;;;-0.45;96.25;100815.69;4944253;28;20610;-78
2022/12/11 10:43:50;;;;;;;35.42;17.50;;;;;;;-0.35;96.13;100818.56;4944275;28;20047;-78
2022/12/11 10:46:26;;;;;;;38.28;17.05;;;;;;;-0.45;95.92;100810.59;4962063;28;20114;-77
2022/12/11 10:48:55;;;;;;;38.72;17.13;;;;;;;-0.38;96.51;100805.97;4945523;28;20039;-78
2022/12/11 10:51:41;;;;;;;34.40;14.95;;;;;;;-0.35;95.84;100805.81;4945745;28;20038;-78
2022/12/11 10:54:28;;;;;;;38.00;18.05;;;;;;;-0.37;96.50;100794.06;4939860;28;20043;-78
2022/12/11 10:56:55;;;;;;;40.95;17.35;;;;;;;-0.40;97.32;100795.03;4961474;28;20038;-79
2022/12/11 10:59:43;;;;;;;37.03;14.63;;;;;;;-0.36;96.15;100795.69;4945780;28;20047;-77
2022/12/11 11:02:29;;;;;;;33.95;14.77;;;;;;;-0.27;95.16;100788.34;4951135;28;20130;-78
2022/12/11 11:04:57;;;;;;;38.90;14.88;;;;;;;-0.30;95.41;100787.69;4958225;28;20408;-77
2022/12/11 11:07:28;;;;;;;34.67;13.43;;;;;;;-0.26;95.58;100790.00;4946001;28;20039;-77
2022/12/11 11:10:24;;;;;;;34.97;13.85;;;;;;;-0.33;95.80;100791.25;4945149;28;20023;-78
2022/12/11 11:12:58;;;;;;;37.05;14.30;;;;;;;-0.36;96.35;100788.88;4937189;28;20043;-79
2022/12/11 11:15:29;;;;;;;36.15;15.70;;;;;;;-0.27;95.89;100782.44;4960293;28;20035;-77
2022/12/11 11:17:59;;;;;;;33.38;14.95;;;;;;;-0.18;94.49;100781.94;4955984;28;20066;-78
2022/12/11 11:20:28;;;;;;;34.15;14.77;;;;;;;-0.35;93.94;100774.41;4959527;28;20058;-78